LAN561 KMIA-SVMI
Flight info
| Callsign | LAN561 |
|---|---|
| Flight time | 2h 46m |
| Altitude | 35000 |
| Route | N04466F350 GWAVA2 URSUS UP406 BILSI UL795 GELOG DCT SIMGA DCT TARBA UA511 PENKO UA315 PJG UL339 VUNUM DCT ISISU ALDAK1 |
| Aircraft | B763/H-SDE3FGHIM3RWXYZ/LB1 |
Departure
| Time | 2026-05-06 11:09 |
|---|---|
| Airport | Miami International Airport (KMIA) |
Arrival
| Time | 2026-05-06 13:55 |
|---|---|
| Airport | Maiquetía Simón Bolívar International Airport (SVMI) |
| Time | Latitude | Longitude | Altitude | Speed | Heading |
|---|---|---|---|---|---|
| 2026-05-06 10:35 | 25.79228 | -80.27419 | 16 ft | 0 kts | 88° |
| 2026-05-06 10:55 | 25.79228 | -80.27420 | 16 ft | 1 kts | 88° |
| 2026-05-06 10:55 | 25.79228 | -80.27436 | 16 ft | 2 kts | 88° |
| 2026-05-06 10:55 | 25.79227 | -80.27453 | 16 ft | 2 kts | 85° |
| 2026-05-06 10:56 | 25.79224 | -80.27469 | 16 ft | 2 kts | 65° |
| 2026-05-06 10:56 | 25.79217 | -80.27483 | 16 ft | 2 kts | 50° |
| 2026-05-06 10:56 | 25.79206 | -80.27494 | 16 ft | 2 kts | 33° |
| 2026-05-06 10:56 | 25.79194 | -80.27503 | 16 ft | 2 kts | 62° |
| 2026-05-06 10:57 | 25.79190 | -80.27519 | 16 ft | 2 kts | 102° |
| 2026-05-06 10:57 | 25.79197 | -80.27534 | 16 ft | 2 kts | 140° |
| 2026-05-06 10:57 | 25.79210 | -80.27541 | 16 ft | 2 kts | 177° |
| 2026-05-06 10:57 | 25.79217 | -80.27541 | 16 ft | 0 kts | 178° |
| 2026-05-06 11:00 | 25.79205 | -80.27540 | 16 ft | 4 kts | 173° |
| 2026-05-06 11:00 | 25.79166 | -80.27527 | 16 ft | 5 kts | 162° |
| 2026-05-06 11:00 | 25.79126 | -80.27516 | 16 ft | 8 kts | 171° |
| 2026-05-06 11:00 | 25.79045 | -80.27512 | 16 ft | 14 kts | 178° |
| 2026-05-06 11:01 | 25.78964 | -80.27548 | 16 ft | 12 kts | 249° |
| 2026-05-06 11:01 | 25.78948 | -80.27641 | 16 ft | 12 kts | 261° |
| 2026-05-06 11:01 | 25.78947 | -80.27742 | 16 ft | 13 kts | 275° |
| 2026-05-06 11:01 | 25.78940 | -80.27846 | 16 ft | 13 kts | 262° |
| 2026-05-06 11:02 | 25.78952 | -80.27953 | 16 ft | 14 kts | 298° |
| 2026-05-06 11:02 | 25.79003 | -80.28050 | 16 ft | 15 kts | 300° |
| 2026-05-06 11:02 | 25.79056 | -80.28153 | 16 ft | 15 kts | 296° |
| 2026-05-06 11:02 | 25.79108 | -80.28261 | 16 ft | 16 kts | 303° |
| 2026-05-06 11:03 | 25.79169 | -80.28361 | 16 ft | 15 kts | 316° |
| 2026-05-06 11:03 | 25.79240 | -80.28451 | 16 ft | 15 kts | 303° |
| 2026-05-06 11:03 | 25.79296 | -80.28559 | 16 ft | 16 kts | 299° |
| 2026-05-06 11:03 | 25.79353 | -80.28670 | 16 ft | 16 kts | 301° |
| 2026-05-06 11:04 | 25.79412 | -80.28783 | 16 ft | 16 kts | 299° |
| 2026-05-06 11:04 | 25.79467 | -80.28893 | 16 ft | 16 kts | 299° |
| 2026-05-06 11:04 | 25.79522 | -80.29003 | 16 ft | 15 kts | 300° |
| 2026-05-06 11:04 | 25.79578 | -80.29109 | 16 ft | 16 kts | 300° |
| 2026-05-06 11:05 | 25.79639 | -80.29229 | 16 ft | 17 kts | 299° |
| 2026-05-06 11:05 | 25.79699 | -80.29345 | 16 ft | 17 kts | 301° |
| 2026-05-06 11:05 | 25.79762 | -80.29452 | 16 ft | 15 kts | 300° |
| 2026-05-06 11:05 | 25.79814 | -80.29555 | 16 ft | 14 kts | 299° |
| 2026-05-06 11:06 | 25.79863 | -80.29653 | 16 ft | 13 kts | 298° |
| 2026-05-06 11:06 | 25.79901 | -80.29747 | 16 ft | 12 kts | 291° |
| 2026-05-06 11:06 | 25.79931 | -80.29837 | 16 ft | 12 kts | 291° |
| 2026-05-06 11:06 | 25.79961 | -80.29922 | 16 ft | 11 kts | 291° |
| 2026-05-06 11:07 | 25.79988 | -80.30002 | 16 ft | 11 kts | 288° |
| 2026-05-06 11:07 | 25.80014 | -80.30091 | 16 ft | 12 kts | 296° |
| 2026-05-06 11:07 | 25.80067 | -80.30123 | 16 ft | 6 kts | 20° |
| 2026-05-06 11:07 | 25.80080 | -80.30062 | 16 ft | 15 kts | 95° |
| 2026-05-06 11:08 | 25.80085 | -80.29791 | 16 ft | 62 kts | 88° |
| 2026-05-06 11:08 | 25.80113 | -80.29085 | 16 ft | 119 kts | 87° |
| 2026-05-06 11:08 | 25.80159 | -80.27977 | 19 ft | 168 kts | 88° |
| 2026-05-06 11:08 | 25.80225 | -80.26622 | 531 ft | 177 kts | 86° |
| 2026-05-06 11:09 | 25.80066 | -80.25323 | 1285 ft | 175 kts | 115° |
| 2026-05-06 11:09 | 25.79209 | -80.24271 | 1519 ft | 201 kts | 142° |
| 2026-05-06 11:09 | 25.78033 | -80.23280 | 1810 ft | 225 kts | 139° |
| 2026-05-06 11:09 | 25.76757 | -80.22098 | 2152 ft | 251 kts | 138° |
| 2026-05-06 11:10 | 25.75407 | -80.20834 | 2940 ft | 257 kts | 142° |
| 2026-05-06 11:10 | 25.73849 | -80.19791 | 3624 ft | 269 kts | 151° |
| 2026-05-06 11:10 | 25.72202 | -80.18789 | 4473 ft | 273 kts | 149° |
| 2026-05-06 11:10 | 25.70546 | -80.17731 | 5280 ft | 279 kts | 149° |
| 2026-05-06 11:11 | 25.68870 | -80.16647 | 6075 ft | 285 kts | 149° |
| 2026-05-06 11:11 | 25.67137 | -80.15514 | 6864 ft | 290 kts | 149° |
| 2026-05-06 11:11 | 25.65410 | -80.14381 | 7637 ft | 295 kts | 148° |
| 2026-05-06 11:11 | 25.63620 | -80.13204 | 8384 ft | 301 kts | 148° |
| 2026-05-06 11:12 | 25.61814 | -80.12015 | 9087 ft | 308 kts | 148° |
| 2026-05-06 11:12 | 25.59979 | -80.10807 | 9856 ft | 311 kts | 148° |
| 2026-05-06 11:12 | 25.58079 | -80.09554 | 10464 ft | 322 kts | 148° |
| 2026-05-06 11:12 | 25.56061 | -80.08225 | 10522 ft | 353 kts | 148° |
| 2026-05-06 11:13 | 25.53889 | -80.06797 | 10962 ft | 370 kts | 149° |
| 2026-05-06 11:13 | 25.51682 | -80.05344 | 11837 ft | 373 kts | 149° |
| 2026-05-06 11:13 | 25.49442 | -80.03872 | 12581 ft | 379 kts | 149° |
| 2026-05-06 11:13 | 25.47141 | -80.02359 | 13387 ft | 383 kts | 149° |
| 2026-05-06 11:14 | 25.44840 | -80.00848 | 14058 ft | 390 kts | 149° |
| 2026-05-06 11:14 | 25.42518 | -79.99323 | 14789 ft | 393 kts | 149° |
| 2026-05-06 11:14 | 25.40153 | -79.97772 | 15431 ft | 399 kts | 149° |
| 2026-05-06 11:14 | 25.37722 | -79.96176 | 16041 ft | 406 kts | 148° |
| 2026-05-06 11:15 | 25.35296 | -79.94585 | 16672 ft | 410 kts | 148° |
| 2026-05-06 11:15 | 25.32846 | -79.92978 | 17264 ft | 415 kts | 148° |
| 2026-05-06 11:15 | 25.30360 | -79.91349 | 17900 ft | 419 kts | 148° |
| 2026-05-06 11:15 | 25.27808 | -79.89677 | 18483 ft | 424 kts | 148° |
| 2026-05-06 11:16 | 25.25280 | -79.88022 | 19111 ft | 427 kts | 149° |
| 2026-05-06 11:16 | 25.22710 | -79.86340 | 19636 ft | 433 kts | 149° |
| 2026-05-06 11:16 | 25.20092 | -79.84628 | 20253 ft | 435 kts | 149° |
| 2026-05-06 11:16 | 25.17505 | -79.82937 | 20721 ft | 441 kts | 149° |
| 2026-05-06 11:17 | 25.14832 | -79.81191 | 21299 ft | 444 kts | 149° |
| 2026-05-06 11:17 | 25.12169 | -79.79452 | 21816 ft | 448 kts | 149° |
| 2026-05-06 11:17 | 25.09477 | -79.77696 | 22305 ft | 452 kts | 149° |
| 2026-05-06 11:17 | 25.06777 | -79.75935 | 22811 ft | 456 kts | 149° |
| 2026-05-06 11:18 | 25.04016 | -79.74135 | 23294 ft | 460 kts | 149° |
| 2026-05-06 11:18 | 25.01266 | -79.72343 | 23830 ft | 463 kts | 149° |
| 2026-05-06 11:18 | 24.98461 | -79.70515 | 24347 ft | 467 kts | 149° |
| 2026-05-06 11:18 | 24.95665 | -79.68696 | 24849 ft | 471 kts | 149° |
| 2026-05-06 11:19 | 24.92851 | -79.66866 | 25400 ft | 473 kts | 149° |
| 2026-05-06 11:19 | 24.89985 | -79.65002 | 25832 ft | 478 kts | 149° |
| 2026-05-06 11:19 | 24.87126 | -79.63144 | 26368 ft | 481 kts | 149° |
| 2026-05-06 11:19 | 24.84208 | -79.61249 | 26812 ft | 485 kts | 149° |
| 2026-05-06 11:20 | 24.81294 | -79.59357 | 27264 ft | 488 kts | 149° |
| 2026-05-06 11:20 | 24.78372 | -79.57461 | 27727 ft | 491 kts | 149° |
| 2026-05-06 11:20 | 24.75417 | -79.55545 | 28103 ft | 496 kts | 149° |
| 2026-05-06 11:20 | 24.72407 | -79.53594 | 28551 ft | 499 kts | 149° |
| 2026-05-06 11:21 | 24.69416 | -79.51656 | 29029 ft | 501 kts | 149° |
| 2026-05-06 11:21 | 24.66409 | -79.49710 | 29438 ft | 505 kts | 149° |
| 2026-05-06 11:21 | 24.63384 | -79.47754 | 29836 ft | 507 kts | 149° |
| 2026-05-06 11:21 | 24.60337 | -79.45783 | 30206 ft | 511 kts | 149° |
| 2026-05-06 11:22 | 24.57239 | -79.43781 | 30644 ft | 513 kts | 149° |
| 2026-05-06 11:22 | 24.54170 | -79.41800 | 31043 ft | 515 kts | 149° |
| 2026-05-06 11:22 | 24.51959 | -79.40372 | 31231 ft | 519 kts | 149° |
| 2026-05-06 11:22 | 24.48847 | -79.38364 | 31616 ft | 521 kts | 149° |
| 2026-05-06 11:23 | 24.45737 | -79.36359 | 32051 ft | 521 kts | 149° |
| 2026-05-06 11:23 | 24.42612 | -79.34345 | 32545 ft | 519 kts | 149° |
| 2026-05-06 11:23 | 24.39510 | -79.32347 | 33068 ft | 517 kts | 149° |
| 2026-05-06 11:23 | 24.36419 | -79.30356 | 33534 ft | 517 kts | 149° |
| 2026-05-06 11:24 | 24.33306 | -79.28352 | 33916 ft | 518 kts | 149° |
| 2026-05-06 11:24 | 24.30201 | -79.26356 | 34376 ft | 518 kts | 149° |
| 2026-05-06 11:24 | 24.27068 | -79.24342 | 34848 ft | 517 kts | 149° |
| 2026-05-06 11:24 | 24.23978 | -79.22357 | 35061 ft | 515 kts | 149° |
| 2026-05-06 11:25 | 24.20901 | -79.20383 | 35039 ft | 514 kts | 149° |
| 2026-05-06 11:25 | 24.14711 | -79.16412 | 35054 ft | 515 kts | 149° |
| 2026-05-06 11:26 | 24.08548 | -79.12464 | 35053 ft | 515 kts | 149° |
| 2026-05-06 11:26 | 24.02308 | -79.08581 | 35053 ft | 514 kts | 155° |
| 2026-05-06 11:27 | 23.95546 | -79.06251 | 35068 ft | 513 kts | 170° |
| 2026-05-06 11:27 | 23.88498 | -79.04745 | 35050 ft | 513 kts | 170° |
| 2026-05-06 11:28 | 23.81506 | -79.03329 | 35045 ft | 511 kts | 171° |
| 2026-05-06 11:28 | 23.74511 | -79.01936 | 35048 ft | 511 kts | 171° |
| 2026-05-06 11:29 | 23.67469 | -79.00542 | 35049 ft | 511 kts | 171° |
| 2026-05-06 11:29 | 23.60486 | -78.99163 | 35048 ft | 511 kts | 171° |
| 2026-05-06 11:30 | 23.53456 | -78.97777 | 35047 ft | 511 kts | 171° |
| 2026-05-06 11:30 | 23.46473 | -78.96401 | 35049 ft | 509 kts | 171° |
| 2026-05-06 11:31 | 23.39496 | -78.95029 | 35048 ft | 510 kts | 171° |
| 2026-05-06 11:31 | 23.32521 | -78.93657 | 35050 ft | 510 kts | 171° |
| 2026-05-06 11:32 | 23.25498 | -78.92276 | 35050 ft | 510 kts | 170° |
| 2026-05-06 11:32 | 23.18810 | -78.89844 | 35064 ft | 509 kts | 151° |
| 2026-05-06 11:33 | 23.12945 | -78.85586 | 35055 ft | 509 kts | 142° |
| 2026-05-06 11:33 | 23.07261 | -78.80955 | 35055 ft | 509 kts | 141° |
| 2026-05-06 11:34 | 23.01629 | -78.76307 | 35055 ft | 508 kts | 141° |
| 2026-05-06 11:34 | 22.96029 | -78.71675 | 35057 ft | 510 kts | 141° |
| 2026-05-06 11:35 | 22.90357 | -78.66984 | 35055 ft | 509 kts | 141° |
| 2026-05-06 11:35 | 22.84754 | -78.62353 | 35050 ft | 508 kts | 141° |
| 2026-05-06 11:36 | 22.79125 | -78.57706 | 35046 ft | 509 kts | 141° |
| 2026-05-06 11:36 | 22.73634 | -78.53142 | 35047 ft | 508 kts | 140° |
| 2026-05-06 11:37 | 22.68036 | -78.48483 | 35049 ft | 508 kts | 141° |
| 2026-05-06 11:37 | 22.62399 | -78.43793 | 35048 ft | 509 kts | 141° |
| 2026-05-06 11:38 | 22.56784 | -78.39129 | 35051 ft | 510 kts | 140° |
| 2026-05-06 11:38 | 22.51158 | -78.34458 | 35052 ft | 509 kts | 141° |
| 2026-05-06 11:39 | 22.45545 | -78.29777 | 35049 ft | 508 kts | 141° |
| 2026-05-06 11:39 | 22.39957 | -78.25120 | 35052 ft | 510 kts | 141° |
| 2026-05-06 11:40 | 22.34329 | -78.20436 | 35050 ft | 510 kts | 141° |
| 2026-05-06 11:40 | 22.28726 | -78.15776 | 35050 ft | 508 kts | 141° |
| 2026-05-06 11:41 | 22.23143 | -78.11139 | 35051 ft | 508 kts | 140° |
| 2026-05-06 11:41 | 22.17489 | -78.06446 | 35054 ft | 512 kts | 141° |
| 2026-05-06 11:42 | 22.11859 | -78.01781 | 35051 ft | 511 kts | 140° |
| 2026-05-06 11:42 | 22.06201 | -77.97096 | 35055 ft | 510 kts | 141° |
| 2026-05-06 11:43 | 22.00604 | -77.92464 | 35058 ft | 510 kts | 141° |
| 2026-05-06 11:43 | 21.94977 | -77.87816 | 35058 ft | 510 kts | 141° |
| 2026-05-06 11:44 | 21.86485 | -77.80828 | 35047 ft | 511 kts | 141° |
| 2026-05-06 11:44 | 21.80853 | -77.76218 | 35052 ft | 511 kts | 141° |
| 2026-05-06 11:45 | 21.75215 | -77.71610 | 35051 ft | 510 kts | 141° |
| 2026-05-06 11:45 | 21.69547 | -77.66981 | 35051 ft | 510 kts | 141° |
| 2026-05-06 11:46 | 21.63917 | -77.62388 | 35055 ft | 511 kts | 141° |
| 2026-05-06 11:46 | 21.58241 | -77.57763 | 35057 ft | 510 kts | 140° |
| 2026-05-06 11:47 | 21.52595 | -77.53165 | 35055 ft | 508 kts | 140° |
| 2026-05-06 11:47 | 21.46974 | -77.48593 | 35060 ft | 509 kts | 140° |
| 2026-05-06 11:48 | 21.41341 | -77.44016 | 35054 ft | 509 kts | 140° |
| 2026-05-06 11:48 | 21.35678 | -77.39425 | 35060 ft | 508 kts | 140° |
| 2026-05-06 11:49 | 21.30027 | -77.34854 | 35060 ft | 511 kts | 141° |
| 2026-05-06 11:49 | 21.24348 | -77.30263 | 35053 ft | 509 kts | 141° |
| 2026-05-06 11:50 | 21.18700 | -77.25701 | 35058 ft | 510 kts | 141° |
| 2026-05-06 11:50 | 21.13035 | -77.21132 | 35059 ft | 510 kts | 141° |
| 2026-05-06 11:51 | 21.07366 | -77.16563 | 35062 ft | 508 kts | 141° |
| 2026-05-06 11:51 | 21.01729 | -77.12024 | 35060 ft | 508 kts | 141° |
| 2026-05-06 11:52 | 20.96045 | -77.07452 | 35064 ft | 510 kts | 141° |
| 2026-05-06 11:52 | 20.90390 | -77.02908 | 35065 ft | 511 kts | 141° |
| 2026-05-06 11:53 | 20.84676 | -76.98321 | 35053 ft | 511 kts | 141° |
| 2026-05-06 11:53 | 20.79012 | -76.93778 | 35051 ft | 509 kts | 141° |
| 2026-05-06 11:54 | 20.73338 | -76.89230 | 35050 ft | 510 kts | 141° |
| 2026-05-06 11:54 | 20.67683 | -76.84705 | 35048 ft | 509 kts | 141° |
| 2026-05-06 11:55 | 20.61994 | -76.80154 | 35054 ft | 510 kts | 141° |
| 2026-05-06 11:55 | 20.56295 | -76.75600 | 35053 ft | 512 kts | 140° |
| 2026-05-06 11:56 | 20.50626 | -76.71075 | 35050 ft | 511 kts | 140° |
| 2026-05-06 11:56 | 20.44902 | -76.66510 | 35054 ft | 512 kts | 141° |
| 2026-05-06 11:57 | 20.39225 | -76.61983 | 35058 ft | 511 kts | 140° |
| 2026-05-06 11:57 | 20.33504 | -76.57413 | 35066 ft | 513 kts | 140° |
| 2026-05-06 11:58 | 20.27820 | -76.52876 | 35072 ft | 511 kts | 140° |
| 2026-05-06 11:58 | 20.22141 | -76.48349 | 35082 ft | 508 kts | 140° |
| 2026-05-06 11:59 | 20.16458 | -76.43822 | 35089 ft | 511 kts | 140° |
| 2026-05-06 11:59 | 20.10764 | -76.39291 | 35089 ft | 511 kts | 140° |
| 2026-05-06 12:00 | 20.05059 | -76.34756 | 35086 ft | 512 kts | 141° |
| 2026-05-06 12:00 | 19.99352 | -76.30223 | 35077 ft | 509 kts | 140° |
| 2026-05-06 12:01 | 19.93681 | -76.25724 | 35062 ft | 510 kts | 140° |
| 2026-05-06 12:01 | 19.87981 | -76.21204 | 35043 ft | 512 kts | 140° |
| 2026-05-06 12:02 | 19.82278 | -76.16687 | 35053 ft | 511 kts | 140° |
| 2026-05-06 12:02 | 19.76566 | -76.12167 | 35062 ft | 511 kts | 140° |
| 2026-05-06 12:03 | 19.70909 | -76.07694 | 35059 ft | 511 kts | 140° |
| 2026-05-06 12:03 | 19.65191 | -76.03177 | 35063 ft | 512 kts | 140° |
| 2026-05-06 12:04 | 19.59469 | -75.98663 | 35060 ft | 510 kts | 140° |
| 2026-05-06 12:04 | 19.53755 | -75.94159 | 35063 ft | 511 kts | 140° |
| 2026-05-06 12:05 | 19.48078 | -75.89687 | 35057 ft | 511 kts | 140° |
| 2026-05-06 12:05 | 19.42360 | -75.85189 | 35057 ft | 511 kts | 140° |
| 2026-05-06 12:06 | 19.36623 | -75.80680 | 35057 ft | 512 kts | 140° |
| 2026-05-06 12:06 | 19.30929 | -75.76209 | 35056 ft | 509 kts | 140° |
| 2026-05-06 12:07 | 19.25217 | -75.71726 | 35059 ft | 510 kts | 140° |
| 2026-05-06 12:07 | 19.19528 | -75.67266 | 35054 ft | 511 kts | 140° |
| 2026-05-06 12:08 | 19.13827 | -75.62800 | 35053 ft | 511 kts | 140° |
| 2026-05-06 12:08 | 19.08096 | -75.58315 | 35055 ft | 511 kts | 140° |
| 2026-05-06 12:09 | 19.02390 | -75.53854 | 35053 ft | 511 kts | 140° |
| 2026-05-06 12:09 | 18.96639 | -75.49361 | 35056 ft | 510 kts | 140° |
| 2026-05-06 12:10 | 18.90954 | -75.44924 | 35058 ft | 511 kts | 140° |
| 2026-05-06 12:10 | 18.85243 | -75.40472 | 35043 ft | 510 kts | 140° |
| 2026-05-06 12:11 | 18.79522 | -75.36013 | 35044 ft | 509 kts | 140° |
| 2026-05-06 12:11 | 18.73836 | -75.31585 | 35046 ft | 510 kts | 140° |
| 2026-05-06 12:12 | 18.68127 | -75.27146 | 35045 ft | 510 kts | 140° |
| 2026-05-06 12:12 | 18.62410 | -75.22703 | 35044 ft | 510 kts | 140° |
| 2026-05-06 12:13 | 18.56686 | -75.18258 | 35047 ft | 511 kts | 140° |
| 2026-05-06 12:13 | 18.50824 | -75.14059 | 35048 ft | 509 kts | 143° |
| 2026-05-06 12:14 | 18.44921 | -75.09878 | 35046 ft | 509 kts | 143° |
| 2026-05-06 12:14 | 18.39027 | -75.05705 | 35038 ft | 509 kts | 143° |
| 2026-05-06 12:15 | 18.33177 | -75.01564 | 35036 ft | 509 kts | 143° |
| 2026-05-06 12:15 | 18.27273 | -74.97390 | 35036 ft | 509 kts | 143° |
| 2026-05-06 12:16 | 18.21390 | -74.93234 | 35032 ft | 510 kts | 143° |
| 2026-05-06 12:16 | 18.15515 | -74.89087 | 35031 ft | 507 kts | 143° |
| 2026-05-06 12:17 | 18.09669 | -74.84963 | 35030 ft | 507 kts | 143° |
| 2026-05-06 12:17 | 18.03773 | -74.80808 | 35037 ft | 509 kts | 143° |
| 2026-05-06 12:18 | 17.97901 | -74.76673 | 35037 ft | 508 kts | 143° |
| 2026-05-06 12:18 | 17.92049 | -74.72555 | 35037 ft | 507 kts | 143° |
| 2026-05-06 12:19 | 17.86187 | -74.68435 | 35025 ft | 507 kts | 143° |
| 2026-05-06 12:19 | 17.80684 | -74.63858 | 35030 ft | 504 kts | 136° |
| 2026-05-06 12:20 | 17.75357 | -74.59063 | 35030 ft | 503 kts | 135° |
| 2026-05-06 12:20 | 17.70069 | -74.54288 | 35032 ft | 503 kts | 135° |
| 2026-05-06 12:21 | 17.64788 | -74.49520 | 35032 ft | 502 kts | 135° |
| 2026-05-06 12:21 | 17.59464 | -74.44717 | 35032 ft | 502 kts | 135° |
| 2026-05-06 12:22 | 17.54183 | -74.39954 | 35035 ft | 503 kts | 136° |
| 2026-05-06 12:22 | 17.48893 | -74.35190 | 35032 ft | 502 kts | 135° |
| 2026-05-06 12:23 | 17.43589 | -74.30414 | 35037 ft | 502 kts | 136° |
| 2026-05-06 12:23 | 17.38261 | -74.25622 | 35031 ft | 502 kts | 136° |
| 2026-05-06 12:24 | 17.32993 | -74.20888 | 35035 ft | 502 kts | 136° |
| 2026-05-06 12:24 | 17.27681 | -74.16117 | 35036 ft | 501 kts | 136° |
| 2026-05-06 12:25 | 17.22388 | -74.11367 | 35031 ft | 501 kts | 136° |
| 2026-05-06 12:25 | 17.17106 | -74.06632 | 35030 ft | 500 kts | 136° |
| 2026-05-06 12:26 | 17.11827 | -74.01902 | 35037 ft | 501 kts | 136° |
| 2026-05-06 12:26 | 17.06518 | -73.97149 | 35036 ft | 501 kts | 136° |
| 2026-05-06 12:27 | 17.01209 | -73.92400 | 35031 ft | 500 kts | 136° |
| 2026-05-06 12:27 | 16.95947 | -73.87695 | 35031 ft | 499 kts | 136° |
| 2026-05-06 12:28 | 16.90683 | -73.82993 | 35029 ft | 499 kts | 136° |
| 2026-05-06 12:28 | 16.85391 | -73.78271 | 35027 ft | 501 kts | 136° |
| 2026-05-06 12:29 | 16.80090 | -73.73543 | 35021 ft | 500 kts | 136° |
| 2026-05-06 12:29 | 16.74804 | -73.68832 | 35025 ft | 500 kts | 136° |
| 2026-05-06 12:30 | 16.69526 | -73.64133 | 35024 ft | 500 kts | 136° |
| 2026-05-06 12:30 | 16.64229 | -73.59419 | 35021 ft | 498 kts | 137° |
| 2026-05-06 12:31 | 16.58978 | -73.54750 | 35023 ft | 500 kts | 136° |
| 2026-05-06 12:31 | 16.53779 | -73.49892 | 35023 ft | 497 kts | 128° |
| 2026-05-06 12:32 | 16.49988 | -73.44014 | 35032 ft | 488 kts | 112° |
| 2026-05-06 12:32 | 16.47061 | -73.37644 | 35020 ft | 488 kts | 111° |
| 2026-05-06 12:33 | 16.44190 | -73.31246 | 35017 ft | 487 kts | 111° |
| 2026-05-06 12:33 | 16.41358 | -73.24888 | 35015 ft | 487 kts | 111° |
| 2026-05-06 12:34 | 16.38507 | -73.18475 | 35019 ft | 489 kts | 111° |
| 2026-05-06 12:34 | 16.35657 | -73.12068 | 35018 ft | 489 kts | 111° |
| 2026-05-06 12:35 | 16.32795 | -73.05639 | 35017 ft | 488 kts | 111° |
| 2026-05-06 12:35 | 16.29943 | -72.99237 | 35016 ft | 489 kts | 111° |
| 2026-05-06 12:36 | 16.27095 | -72.92854 | 35018 ft | 489 kts | 111° |
| 2026-05-06 12:36 | 16.24237 | -72.86452 | 35014 ft | 488 kts | 111° |
| 2026-05-06 12:37 | 16.21372 | -72.80048 | 35021 ft | 489 kts | 111° |
| 2026-05-06 12:37 | 16.18501 | -72.73637 | 35019 ft | 489 kts | 111° |
| 2026-05-06 12:38 | 16.15641 | -72.67255 | 35017 ft | 488 kts | 112° |
| 2026-05-06 12:38 | 16.12780 | -72.60877 | 35020 ft | 488 kts | 112° |
| 2026-05-06 12:39 | 16.09893 | -72.54447 | 35022 ft | 489 kts | 112° |
| 2026-05-06 12:39 | 16.07027 | -72.48071 | 35026 ft | 489 kts | 112° |
| 2026-05-06 12:40 | 16.04162 | -72.41703 | 35025 ft | 488 kts | 112° |
| 2026-05-06 12:40 | 16.01288 | -72.35320 | 35034 ft | 488 kts | 112° |
| 2026-05-06 12:41 | 15.98408 | -72.28931 | 35031 ft | 489 kts | 112° |
| 2026-05-06 12:41 | 15.95494 | -72.22545 | 35032 ft | 489 kts | 113° |
| 2026-05-06 12:42 | 15.92591 | -72.16190 | 35029 ft | 489 kts | 113° |
| 2026-05-06 12:42 | 15.89672 | -72.09803 | 35029 ft | 490 kts | 113° |
| 2026-05-06 12:43 | 15.86762 | -72.03447 | 35024 ft | 490 kts | 113° |
| 2026-05-06 12:43 | 15.83842 | -71.97070 | 35022 ft | 489 kts | 113° |
| 2026-05-06 12:44 | 15.80919 | -71.90694 | 35023 ft | 488 kts | 113° |
| 2026-05-06 12:44 | 15.78003 | -71.84338 | 35023 ft | 490 kts | 113° |
| 2026-05-06 12:45 | 15.75073 | -71.77961 | 35026 ft | 490 kts | 113° |
| 2026-05-06 12:46 | 15.70668 | -71.68382 | 35025 ft | 490 kts | 113° |
| 2026-05-06 12:46 | 15.67731 | -71.62002 | 35030 ft | 492 kts | 114° |
| 2026-05-06 12:47 | 15.64779 | -71.55596 | 35032 ft | 492 kts | 114° |
| 2026-05-06 12:47 | 15.61826 | -71.49194 | 35032 ft | 492 kts | 114° |
| 2026-05-06 12:48 | 15.58889 | -71.42831 | 35031 ft | 491 kts | 114° |
| 2026-05-06 12:48 | 15.55925 | -71.36417 | 35029 ft | 493 kts | 114° |
| 2026-05-06 12:49 | 15.52989 | -71.30019 | 35026 ft | 492 kts | 113° |
| 2026-05-06 12:49 | 15.50134 | -71.23563 | 35024 ft | 493 kts | 113° |
| 2026-05-06 12:50 | 15.47287 | -71.17144 | 35027 ft | 493 kts | 113° |
| 2026-05-06 12:50 | 15.44410 | -71.10664 | 35026 ft | 494 kts | 114° |
| 2026-05-06 12:51 | 15.41531 | -71.04186 | 35029 ft | 495 kts | 114° |
| 2026-05-06 12:51 | 15.38658 | -70.97730 | 35030 ft | 494 kts | 114° |
| 2026-05-06 12:52 | 15.35758 | -70.91288 | 35031 ft | 494 kts | 114° |
| 2026-05-06 12:52 | 15.32894 | -70.85042 | 35030 ft | 494 kts | 114° |
| 2026-05-06 12:53 | 15.29941 | -70.78602 | 35032 ft | 494 kts | 114° |
| 2026-05-06 12:53 | 15.26983 | -70.72156 | 35031 ft | 495 kts | 114° |
| 2026-05-06 12:54 | 15.24042 | -70.65757 | 35034 ft | 495 kts | 114° |
| 2026-05-06 12:54 | 15.21085 | -70.59325 | 35032 ft | 496 kts | 114° |
| 2026-05-06 12:55 | 15.18120 | -70.52882 | 35033 ft | 495 kts | 114° |
| 2026-05-06 12:55 | 15.15157 | -70.46451 | 35038 ft | 495 kts | 114° |
| 2026-05-06 12:56 | 15.12211 | -70.40063 | 35036 ft | 494 kts | 115° |
| 2026-05-06 12:56 | 15.08418 | -70.34160 | 35037 ft | 495 kts | 133° |
| 2026-05-06 12:57 | 15.03135 | -70.29655 | 35038 ft | 495 kts | 152° |
| 2026-05-06 12:57 | 14.96889 | -70.26643 | 35024 ft | 492 kts | 158° |
| 2026-05-06 12:58 | 14.90630 | -70.23816 | 35022 ft | 491 kts | 158° |
| 2026-05-06 12:58 | 14.84382 | -70.21004 | 35019 ft | 490 kts | 158° |
| 2026-05-06 12:59 | 14.78095 | -70.18178 | 35020 ft | 491 kts | 158° |
| 2026-05-06 12:59 | 14.71802 | -70.15351 | 35019 ft | 490 kts | 158° |
| 2026-05-06 13:00 | 14.65576 | -70.12557 | 35019 ft | 488 kts | 158° |
| 2026-05-06 13:00 | 14.59319 | -70.09750 | 35019 ft | 489 kts | 158° |
| 2026-05-06 13:01 | 14.53049 | -70.06940 | 35019 ft | 489 kts | 159° |
| 2026-05-06 13:01 | 14.46832 | -70.04154 | 35017 ft | 488 kts | 159° |
| 2026-05-06 13:02 | 14.40588 | -70.01359 | 35014 ft | 488 kts | 159° |
| 2026-05-06 13:02 | 14.34291 | -69.98693 | 35015 ft | 488 kts | 160° |
| 2026-05-06 13:03 | 14.27994 | -69.96058 | 35015 ft | 487 kts | 160° |
| 2026-05-06 13:03 | 14.21736 | -69.93439 | 35012 ft | 486 kts | 160° |
| 2026-05-06 13:04 | 14.15478 | -69.90768 | 35014 ft | 486 kts | 158° |
| 2026-05-06 13:04 | 14.09311 | -69.87875 | 35010 ft | 486 kts | 158° |
| 2026-05-06 13:05 | 14.03176 | -69.85010 | 35009 ft | 485 kts | 158° |
| 2026-05-06 13:05 | 13.96988 | -69.82125 | 35011 ft | 485 kts | 158° |
| 2026-05-06 13:06 | 13.90839 | -69.79260 | 35010 ft | 486 kts | 158° |
| 2026-05-06 13:06 | 13.84679 | -69.76392 | 35006 ft | 485 kts | 158° |
| 2026-05-06 13:07 | 13.78490 | -69.73511 | 35005 ft | 485 kts | 158° |
| 2026-05-06 13:07 | 13.72358 | -69.70660 | 35005 ft | 484 kts | 158° |
| 2026-05-06 13:08 | 13.66212 | -69.67804 | 35005 ft | 483 kts | 158° |
| 2026-05-06 13:08 | 13.60078 | -69.64954 | 35003 ft | 483 kts | 158° |
| 2026-05-06 13:09 | 13.53943 | -69.62106 | 35005 ft | 483 kts | 158° |
| 2026-05-06 13:09 | 13.47796 | -69.59255 | 35006 ft | 484 kts | 158° |
| 2026-05-06 13:10 | 13.41677 | -69.56416 | 35001 ft | 482 kts | 158° |
| 2026-05-06 13:10 | 13.35524 | -69.53565 | 35001 ft | 481 kts | 158° |
| 2026-05-06 13:11 | 13.29421 | -69.50738 | 35003 ft | 481 kts | 158° |
| 2026-05-06 13:11 | 13.23330 | -69.47918 | 35005 ft | 482 kts | 158° |
| 2026-05-06 13:12 | 13.17181 | -69.45073 | 35003 ft | 482 kts | 158° |
| 2026-05-06 13:12 | 13.11092 | -69.42257 | 35002 ft | 481 kts | 158° |
| 2026-05-06 13:13 | 13.04969 | -69.39426 | 35001 ft | 481 kts | 158° |
| 2026-05-06 13:13 | 12.98856 | -69.36667 | 35006 ft | 480 kts | 158° |
| 2026-05-06 13:14 | 12.92714 | -69.33907 | 34995 ft | 479 kts | 158° |
| 2026-05-06 13:14 | 12.86610 | -69.31165 | 34998 ft | 480 kts | 158° |
| 2026-05-06 13:15 | 12.80492 | -69.28417 | 34998 ft | 480 kts | 158° |
| 2026-05-06 13:15 | 12.74369 | -69.25671 | 34996 ft | 479 kts | 158° |
| 2026-05-06 13:16 | 12.68236 | -69.22920 | 34991 ft | 479 kts | 158° |
| 2026-05-06 13:16 | 12.62123 | -69.20179 | 34995 ft | 479 kts | 158° |
| 2026-05-06 13:17 | 12.55985 | -69.17429 | 34992 ft | 479 kts | 158° |
| 2026-05-06 13:17 | 12.49907 | -69.14707 | 34993 ft | 478 kts | 158° |
| 2026-05-06 13:18 | 12.43774 | -69.11963 | 34991 ft | 479 kts | 158° |
| 2026-05-06 13:18 | 12.37661 | -69.09229 | 34995 ft | 478 kts | 158° |
| 2026-05-06 13:19 | 12.31550 | -69.06496 | 34998 ft | 477 kts | 158° |
| 2026-05-06 13:19 | 12.25462 | -69.03775 | 35003 ft | 477 kts | 158° |
| 2026-05-06 13:20 | 12.19410 | -69.00980 | 35006 ft | 478 kts | 153° |
| 2026-05-06 13:20 | 12.13623 | -68.97626 | 35010 ft | 479 kts | 152° |
| 2026-05-06 13:21 | 12.07799 | -68.94228 | 35010 ft | 479 kts | 152° |
| 2026-05-06 13:21 | 12.02007 | -68.90841 | 35003 ft | 479 kts | 151° |
| 2026-05-06 13:22 | 11.97096 | -68.87968 | 34995 ft | 479 kts | 151° |
| 2026-05-06 13:22 | 11.91330 | -68.84597 | 34994 ft | 478 kts | 151° |
| 2026-05-06 13:23 | 11.85612 | -68.81253 | 34976 ft | 458 kts | 151° |
| 2026-05-06 13:23 | 11.82894 | -68.79664 | 34972 ft | 444 kts | 151° |
| 2026-05-06 13:23 | 11.80235 | -68.78109 | 34974 ft | 434 kts | 151° |
| 2026-05-06 13:24 | 11.74985 | -68.75045 | 34683 ft | 446 kts | 151° |
| 2026-05-06 13:24 | 11.72231 | -68.73457 | 34026 ft | 459 kts | 152° |
| 2026-05-06 13:24 | 11.69455 | -68.71870 | 33484 ft | 460 kts | 152° |
| 2026-05-06 13:24 | 11.66640 | -68.70259 | 32923 ft | 457 kts | 152° |
| 2026-05-06 13:25 | 11.63888 | -68.68684 | 32412 ft | 453 kts | 152° |
| 2026-05-06 13:25 | 11.61147 | -68.67116 | 31943 ft | 450 kts | 152° |
| 2026-05-06 13:25 | 11.58416 | -68.65553 | 31470 ft | 449 kts | 151° |
| 2026-05-06 13:25 | 11.55690 | -68.63995 | 31004 ft | 451 kts | 151° |
| 2026-05-06 13:26 | 11.52962 | -68.62437 | 30532 ft | 454 kts | 151° |
| 2026-05-06 13:26 | 11.50169 | -68.60840 | 30046 ft | 457 kts | 151° |
| 2026-05-06 13:26 | 11.47404 | -68.59261 | 29559 ft | 459 kts | 151° |
| 2026-05-06 13:26 | 11.44626 | -68.57674 | 29071 ft | 457 kts | 151° |
| 2026-05-06 13:27 | 11.41862 | -68.56094 | 28586 ft | 453 kts | 151° |
| 2026-05-06 13:27 | 11.39089 | -68.54511 | 28098 ft | 449 kts | 151° |
| 2026-05-06 13:27 | 11.36376 | -68.52962 | 27592 ft | 445 kts | 150° |
| 2026-05-06 13:27 | 11.33691 | -68.51429 | 27094 ft | 442 kts | 150° |
| 2026-05-06 13:28 | 11.31039 | -68.49915 | 26602 ft | 438 kts | 150° |
| 2026-05-06 13:28 | 11.28353 | -68.48383 | 26103 ft | 435 kts | 150° |
| 2026-05-06 13:28 | 11.25729 | -68.46886 | 25615 ft | 432 kts | 150° |
| 2026-05-06 13:28 | 11.23126 | -68.45402 | 25130 ft | 428 kts | 150° |
| 2026-05-06 13:29 | 11.20547 | -68.43932 | 24651 ft | 425 kts | 150° |
| 2026-05-06 13:29 | 11.17944 | -68.42461 | 24167 ft | 422 kts | 152° |
| 2026-05-06 13:29 | 11.15252 | -68.41316 | 23706 ft | 419 kts | 160° |
| 2026-05-06 13:29 | 11.12475 | -68.40363 | 23253 ft | 419 kts | 160° |
| 2026-05-06 13:30 | 11.09716 | -68.39416 | 22788 ft | 416 kts | 160° |
| 2026-05-06 13:30 | 11.06988 | -68.38464 | 22315 ft | 412 kts | 156° |
| 2026-05-06 13:30 | 11.04437 | -68.37174 | 21869 ft | 407 kts | 145° |
| 2026-05-06 13:30 | 11.02258 | -68.35381 | 21437 ft | 401 kts | 131° |
| 2026-05-06 13:31 | 11.00445 | -68.33250 | 21034 ft | 397 kts | 126° |
| 2026-05-06 13:31 | 10.98796 | -68.31010 | 20624 ft | 393 kts | 123° |
| 2026-05-06 13:31 | 10.97250 | -68.28754 | 20213 ft | 390 kts | 122° |
| 2026-05-06 13:31 | 10.95743 | -68.26461 | 19798 ft | 386 kts | 121° |
| 2026-05-06 13:32 | 10.94280 | -68.24182 | 19388 ft | 384 kts | 120° |
| 2026-05-06 13:32 | 10.92840 | -68.21911 | 18974 ft | 380 kts | 120° |
| 2026-05-06 13:32 | 10.91430 | -68.19673 | 18574 ft | 377 kts | 120° |
| 2026-05-06 13:32 | 10.90014 | -68.17416 | 18154 ft | 375 kts | 119° |
| 2026-05-06 13:33 | 10.88609 | -68.15176 | 17711 ft | 372 kts | 119° |
| 2026-05-06 13:33 | 10.87232 | -68.12975 | 17318 ft | 370 kts | 119° |
| 2026-05-06 13:33 | 10.85870 | -68.10799 | 16871 ft | 366 kts | 119° |
| 2026-05-06 13:33 | 10.84504 | -68.08617 | 16492 ft | 361 kts | 119° |
| 2026-05-06 13:34 | 10.83293 | -68.06454 | 16471 ft | 348 kts | 108° |
| 2026-05-06 13:34 | 10.82647 | -68.04107 | 16494 ft | 348 kts | 99° |
| 2026-05-06 13:34 | 10.82051 | -68.01681 | 16522 ft | 358 kts | 103° |
| 2026-05-06 13:34 | 10.81360 | -67.99232 | 16514 ft | 359 kts | 104° |
| 2026-05-06 13:35 | 10.80633 | -67.96801 | 16497 ft | 356 kts | 104° |
| 2026-05-06 13:35 | 10.79899 | -67.94412 | 16508 ft | 354 kts | 104° |
| 2026-05-06 13:35 | 10.79155 | -67.92027 | 16539 ft | 355 kts | 104° |
| 2026-05-06 13:35 | 10.78401 | -67.89633 | 16532 ft | 357 kts | 104° |
| 2026-05-06 13:36 | 10.77641 | -67.87231 | 16511 ft | 357 kts | 105° |
| 2026-05-06 13:36 | 10.76881 | -67.84834 | 16467 ft | 356 kts | 105° |
| 2026-05-06 13:36 | 10.76118 | -67.82434 | 16473 ft | 356 kts | 104° |
| 2026-05-06 13:36 | 10.75357 | -67.80040 | 16470 ft | 355 kts | 105° |
| 2026-05-06 13:37 | 10.74595 | -67.77645 | 16493 ft | 355 kts | 105° |
| 2026-05-06 13:37 | 10.73840 | -67.75272 | 16489 ft | 356 kts | 105° |
| 2026-05-06 13:37 | 10.73078 | -67.72879 | 16481 ft | 356 kts | 105° |
| 2026-05-06 13:37 | 10.72316 | -67.70488 | 16481 ft | 356 kts | 105° |
| 2026-05-06 13:38 | 10.71550 | -67.68083 | 16465 ft | 355 kts | 105° |
| 2026-05-06 13:38 | 10.70794 | -67.65711 | 16440 ft | 355 kts | 105° |
| 2026-05-06 13:38 | 10.70038 | -67.63339 | 16451 ft | 355 kts | 105° |
| 2026-05-06 13:38 | 10.69270 | -67.60932 | 16463 ft | 356 kts | 105° |
| 2026-05-06 13:39 | 10.68663 | -67.58528 | 16454 ft | 353 kts | 93° |
| 2026-05-06 13:39 | 10.68720 | -67.56042 | 16419 ft | 350 kts | 78° |
| 2026-05-06 13:39 | 10.69340 | -67.53632 | 15974 ft | 356 kts | 72° |
| 2026-05-06 13:39 | 10.70031 | -67.51231 | 15479 ft | 353 kts | 73° |
| 2026-05-06 13:40 | 10.70726 | -67.48882 | 14980 ft | 350 kts | 73° |
| 2026-05-06 13:40 | 10.71429 | -67.46515 | 14522 ft | 347 kts | 73° |
| 2026-05-06 13:40 | 10.72128 | -67.44183 | 14062 ft | 343 kts | 73° |
| 2026-05-06 13:40 | 10.72818 | -67.41881 | 13614 ft | 339 kts | 74° |
| 2026-05-06 13:41 | 10.73501 | -67.39608 | 13163 ft | 335 kts | 74° |
| 2026-05-06 13:41 | 10.74178 | -67.37360 | 12797 ft | 330 kts | 74° |
| 2026-05-06 13:41 | 10.74842 | -67.35146 | 12455 ft | 325 kts | 74° |
| 2026-05-06 13:41 | 10.75500 | -67.32959 | 12063 ft | 323 kts | 75° |
| 2026-05-06 13:42 | 10.76151 | -67.30792 | 11717 ft | 320 kts | 75° |
| 2026-05-06 13:42 | 10.76803 | -67.28623 | 11347 ft | 320 kts | 75° |
| 2026-05-06 13:42 | 10.77445 | -67.26490 | 10990 ft | 319 kts | 75° |
| 2026-05-06 13:42 | 10.78096 | -67.24321 | 10613 ft | 317 kts | 75° |
| 2026-05-06 13:43 | 10.78752 | -67.22182 | 10241 ft | 317 kts | 71° |
| 2026-05-06 13:43 | 10.79790 | -67.20208 | 9878 ft | 315 kts | 58° |
| 2026-05-06 13:43 | 10.80996 | -67.18406 | 9721 ft | 305 kts | 59° |
| 2026-05-06 13:43 | 10.82165 | -67.16631 | 9590 ft | 295 kts | 59° |
| 2026-05-06 13:44 | 10.83282 | -67.14947 | 9464 ft | 285 kts | 59° |
| 2026-05-06 13:44 | 10.84385 | -67.13290 | 9400 ft | 274 kts | 59° |
| 2026-05-06 13:44 | 10.85435 | -67.11710 | 9350 ft | 272 kts | 59° |
| 2026-05-06 13:44 | 10.86503 | -67.10104 | 9248 ft | 272 kts | 59° |
| 2026-05-06 13:45 | 10.87561 | -67.08507 | 9128 ft | 272 kts | 62° |
| 2026-05-06 13:45 | 10.88310 | -67.04900 | 8932 ft | 264 kts | 88° |
| 2026-05-06 13:45 | 10.88409 | -67.03024 | 8829 ft | 266 kts | 89° |
| 2026-05-06 13:46 | 10.88492 | -67.01138 | 8719 ft | 266 kts | 89° |
| 2026-05-06 13:46 | 10.88564 | -66.99279 | 8590 ft | 263 kts | 89° |
| 2026-05-06 13:46 | 10.88632 | -66.97414 | 8493 ft | 263 kts | 89° |
| 2026-05-06 13:46 | 10.88696 | -66.95549 | 8388 ft | 263 kts | 89° |
| 2026-05-06 13:47 | 10.88757 | -66.93690 | 8289 ft | 262 kts | 91° |
| 2026-05-06 13:47 | 10.88438 | -66.91898 | 8246 ft | 259 kts | 115° |
| 2026-05-06 13:47 | 10.87543 | -66.90276 | 7989 ft | 267 kts | 120° |
| 2026-05-06 13:47 | 10.86606 | -66.88662 | 7655 ft | 266 kts | 120° |
| 2026-05-06 13:48 | 10.85647 | -66.87035 | 7346 ft | 266 kts | 120° |
| 2026-05-06 13:48 | 10.84686 | -66.85423 | 7028 ft | 266 kts | 120° |
| 2026-05-06 13:48 | 10.83724 | -66.83819 | 6701 ft | 266 kts | 120° |
| 2026-05-06 13:48 | 10.82772 | -66.82237 | 6390 ft | 265 kts | 121° |
| 2026-05-06 13:49 | 10.81800 | -66.80626 | 6041 ft | 266 kts | 121° |
| 2026-05-06 13:49 | 10.80774 | -66.79053 | 5630 ft | 268 kts | 131° |
| 2026-05-06 13:49 | 10.79246 | -66.77979 | 5276 ft | 271 kts | 159° |
| 2026-05-06 13:49 | 10.77364 | -66.77770 | 5006 ft | 272 kts | 186° |
| 2026-05-06 13:50 | 10.75530 | -66.78158 | 4723 ft | 270 kts | 189° |
| 2026-05-06 13:50 | 10.73683 | -66.78575 | 4429 ft | 269 kts | 190° |
| 2026-05-06 13:50 | 10.71857 | -66.79007 | 4143 ft | 268 kts | 190° |
| 2026-05-06 13:50 | 10.70059 | -66.79443 | 3861 ft | 266 kts | 191° |
| 2026-05-06 13:51 | 10.68263 | -66.79882 | 3619 ft | 263 kts | 191° |
| 2026-05-06 13:51 | 10.66597 | -66.80626 | 3419 ft | 261 kts | 217° |
| 2026-05-06 13:51 | 10.65497 | -66.82045 | 3263 ft | 254 kts | 243° |
| 2026-05-06 13:51 | 10.64791 | -66.83656 | 3184 ft | 240 kts | 244° |
| 2026-05-06 13:52 | 10.64134 | -66.85179 | 3010 ft | 231 kts | 245° |
| 2026-05-06 13:52 | 10.63528 | -66.86639 | 2844 ft | 222 kts | 246° |
| 2026-05-06 13:52 | 10.62954 | -66.88051 | 2736 ft | 206 kts | 245° |
| 2026-05-06 13:52 | 10.62425 | -66.89368 | 2352 ft | 201 kts | 245° |
| 2026-05-06 13:53 | 10.61921 | -66.90656 | 1969 ft | 188 kts | 250° |
| 2026-05-06 13:53 | 10.61636 | -66.91889 | 1702 ft | 175 kts | 257° |
| 2026-05-06 13:53 | 10.61304 | -66.93060 | 1364 ft | 170 kts | 250° |
| 2026-05-06 13:53 | 10.60935 | -66.94184 | 1073 ft | 167 kts | 253° |
| 2026-05-06 13:54 | 10.60680 | -66.95324 | 820 ft | 161 kts | 260° |
| 2026-05-06 13:54 | 10.60545 | -66.96439 | 566 ft | 158 kts | 265° |
| 2026-05-06 13:54 | 10.60490 | -66.97550 | 338 ft | 156 kts | 268° |
| 2026-05-06 13:54 | 10.60459 | -66.98619 | 236 ft | 142 kts | 269° |
| 2026-05-06 13:55 | 10.60437 | -66.99367 | 272 ft | 70 kts | 268° |
| 2026-05-06 13:55 | 10.60422 | -66.99869 | 294 ft | 67 kts | 268° |
| 2026-05-06 13:55 | 10.60407 | -67.00251 | 304 ft | 27 kts | 259° |
| 2026-05-06 13:55 | 10.60320 | -67.00312 | 305 ft | 16 kts | 180° |
| 2026-05-06 13:56 | 10.60181 | -67.00307 | 307 ft | 21 kts | 178° |
| 2026-05-06 13:56 | 10.60007 | -67.00300 | 310 ft | 27 kts | 179° |
| 2026-05-06 13:56 | 10.59921 | -67.00338 | 311 ft | 11 kts | 264° |
| 2026-05-06 13:56 | 10.59919 | -67.00446 | 311 ft | 18 kts | 268° |
| 2026-05-06 13:57 | 10.59897 | -67.00521 | 310 ft | 6 kts | 210° |
| 2026-05-06 13:57 | 10.59847 | -67.00526 | 312 ft | 2 kts | 178° |
| 2026-05-06 13:57 | 10.59845 | -67.00526 | 312 ft | 0 kts | 178° |